createdAt,value
2022-08-10T00:00:12.599Z,101494.49
2022-08-10T00:03:01.700Z,101492.68
2022-08-10T00:05:43.828Z,101492.91
2022-08-10T00:08:22.741Z,101491.87
2022-08-10T00:10:55.876Z,101482.10
2022-08-10T00:13:27.127Z,101481.55
2022-08-10T00:15:55.827Z,101481.64
2022-08-10T00:18:34.626Z,101476.65
2022-08-10T00:21:07.612Z,101482.09
2022-08-10T00:23:37.622Z,101478.22
2022-08-10T00:26:07.388Z,101477.45
2022-08-10T00:28:36.117Z,101479.52
2022-08-10T00:31:04.795Z,101482.44
2022-08-10T00:33:33.490Z,101488.23
2022-08-10T00:36:02.168Z,101488.21
2022-08-10T00:38:30.855Z,101484.71
2022-08-10T00:41:19.590Z,101474.34
2022-08-10T00:43:48.204Z,101473.23
2022-08-10T00:46:16.812Z,101474.07
2022-08-10T00:48:45.618Z,101470.77
2022-08-10T00:51:22.106Z,101472.45
2022-08-10T00:54:09.804Z,101468.37
2022-08-10T00:57:15.872Z,101470.67
2022-08-10T00:59:59.159Z,101463.59
2022-08-10T01:02:32.847Z,101462.90
2022-08-10T01:05:09.722Z,101462.09
2022-08-10T01:08:15.329Z,101455.88
2022-08-10T01:12:34.137Z,101454.46
2022-08-10T01:14:09.717Z,101459.34
2022-08-10T01:16:54.043Z,101459.65
2022-08-10T01:19:44.158Z,101462.02
2022-08-10T01:22:32.620Z,101461.34
2022-08-10T01:26:12.046Z,101462.42
2022-08-10T01:29:37.026Z,101458.73
2022-08-10T01:32:08.914Z,101458.07
2022-08-10T01:35:07.349Z,101459.07
2022-08-10T01:37:52.138Z,101461.04
2022-08-10T01:40:25.972Z,101462.41
2022-08-10T01:43:08.031Z,101459.53
2022-08-10T01:45:46.312Z,101460.33
2022-08-10T01:48:33.389Z,101457.34
2022-08-10T01:51:11.907Z,101455.69
2022-08-10T01:53:56.463Z,101454.61
2022-08-10T01:56:28.880Z,101447.79
2022-08-10T01:59:40.436Z,101447.65
2022-08-10T02:02:14.282Z,101448.81
2022-08-10T02:04:49.699Z,101446.79
2022-08-10T02:07:24.618Z,101451.05
2022-08-10T02:09:57.084Z,101453.65
2022-08-10T02:12:31.746Z,101451.61
2022-08-10T02:15:10.879Z,101454.30
2022-08-10T02:18:00.527Z,101451.41
2022-08-10T02:20:52.144Z,101448.63
2022-08-10T02:23:30.405Z,101450.61
2022-08-10T02:26:01.908Z,101451.33
2022-08-10T02:28:34.843Z,101452.03
2022-08-10T02:31:11.786Z,101447.27
2022-08-10T02:33:57.322Z,101446.61
2022-08-10T02:36:33.432Z,101444.58
2022-08-10T02:39:05.498Z,101446.55
2022-08-10T02:45:02.255Z,101450.19
2022-08-10T02:45:29.674Z,101453.70
2022-08-10T02:48:07.579Z,101457.48
2022-08-10T02:50:39.075Z,101456.30
2022-08-10T02:53:55.169Z,101452.90
2022-08-10T02:56:28.946Z,101449.52
2022-08-10T02:59:06.215Z,101452.07
2022-08-10T03:01:42.644Z,101444.36
2022-08-10T03:05:16.004Z,101451.57
2022-08-10T03:07:46.545Z,101452.31
2022-08-10T03:10:25.302Z,101451.54
2022-08-10T03:13:00.154Z,101449.99
2022-08-10T03:15:31.577Z,101450.73
2022-08-10T03:18:02.798Z,101443.88
2022-08-10T03:20:40.534Z,101448.32
2022-08-10T03:23:18.896Z,101448.42
2022-08-10T03:25:53.381Z,101457.25
2022-08-10T03:28:27.370Z,101453.47
2022-08-10T03:30:59.567Z,101451.20
2022-08-10T03:33:37.211Z,101457.27
2022-08-10T03:36:40.494Z,101459.47
2022-08-10T03:38:55.610Z,101460.17
2022-08-10T03:41:42.195Z,101462.75
2022-08-10T03:44:33.803Z,101461.77
2022-08-10T03:47:04.737Z,101460.96
2022-08-10T03:49:48.084Z,101463.23
2022-08-10T03:52:19.143Z,101464.06
2022-08-10T03:54:51.735Z,101457.51
2022-08-10T03:57:23.796Z,101458.90
2022-08-10T03:59:53.827Z,101456.40
2022-08-10T04:02:44.008Z,101461.21
2022-08-10T04:05:16.023Z,101463.77
2022-08-10T04:07:45.497Z,101467.86
2022-08-10T04:10:14.755Z,101460.20
2022-08-10T04:12:44.300Z,101464.71
2022-08-10T04:15:13.948Z,101466.56
2022-08-10T04:18:04.298Z,101467.75
2022-08-10T04:20:40.996Z,101462.27
2022-08-10T04:23:16.022Z,101464.48
2022-08-10T04:25:45.266Z,101468.81
2022-08-10T04:28:15.016Z,101468.96
2022-08-10T04:30:46.187Z,101461.23
2022-08-10T04:33:19.097Z,101465.62
2022-08-10T04:35:48.437Z,101460.83
2022-08-10T04:38:18.657Z,101459.61
2022-08-10T04:40:48.091Z,101455.98
2022-08-10T04:43:16.946Z,101460.78
2022-08-10T04:46:20.181Z,101459.60
2022-08-10T04:49:01.973Z,101462.43
2022-08-10T04:51:30.919Z,101459.37
2022-08-10T04:54:03.992Z,101458.65
2022-08-10T04:56:37.477Z,101460.23
2022-08-10T04:59:09.264Z,101461.50
2022-08-10T05:02:22.339Z,101470.06
2022-08-10T05:04:34.907Z,101456.02
2022-08-10T05:07:16.050Z,101458.19
2022-08-10T05:10:01.699Z,101454.73
2022-08-10T05:12:38.543Z,101459.86
2022-08-10T05:15:13.883Z,101448.80
2022-08-10T05:18:03.361Z,101449.02
2022-08-10T05:20:32.229Z,101450.61
2022-08-10T05:23:01.018Z,101452.71
2022-08-10T05:26:03.495Z,101458.52
2022-08-10T05:28:32.672Z,101458.98
2022-08-10T05:31:30.677Z,101458.77
2022-08-10T05:34:00.552Z,101460.66
2022-08-10T05:36:30.273Z,101468.73
2022-08-10T05:39:01.353Z,101459.20
2022-08-10T05:41:31.299Z,101466.47
2022-08-10T05:44:26.323Z,101469.18
2022-08-10T05:46:54.959Z,101474.80
2022-08-10T05:49:53.492Z,101469.45
2022-08-10T05:52:22.850Z,101483.59
2022-08-10T05:54:51.631Z,101492.05
2022-08-10T05:57:23.238Z,101479.08
2022-08-10T06:00:29.495Z,101480.49
2022-08-10T06:03:10.994Z,101488.49
2022-08-10T06:05:46.708Z,101480.77
2022-08-10T06:08:23.002Z,101476.89
2022-08-10T06:12:26.316Z,101488.91
2022-08-10T06:14:16.149Z,101500.51
2022-08-10T06:16:48.562Z,101495.50
2022-08-10T06:19:18.380Z,101481.26
2022-08-10T06:21:55.348Z,101490.86
2022-08-10T06:24:34.106Z,101486.92
2022-08-10T06:27:09.899Z,101492.11
2022-08-10T06:29:46.847Z,101487.33
2022-08-10T06:32:16.810Z,101485.33
2022-08-10T06:34:57.350Z,101500.75
2022-08-10T06:37:29.939Z,101494.43
2022-08-10T06:39:59.809Z,101496.42
2022-08-10T06:42:36.115Z,101496.12
2022-08-10T06:45:22.256Z,101503.21
2022-08-10T06:48:10.698Z,101510.83
2022-08-10T06:50:58.802Z,101505.88
2022-08-10T06:53:53.961Z,101521.16
2022-08-10T06:56:36.249Z,101526.69
2022-08-10T06:59:22.047Z,101521.35
2022-08-10T07:02:00.484Z,101519.02
2022-08-10T07:05:23.782Z,101515.94
2022-08-10T07:07:58.537Z,101515.51
2022-08-10T07:10:41.192Z,101521.66
2022-08-10T07:14:15.316Z,101517.33
2022-08-10T07:16:12.733Z,101523.10
2022-08-10T07:18:43.399Z,101524.71
2022-08-10T07:21:13.710Z,101521.33
2022-08-10T07:23:56.789Z,101518.52
2022-08-10T07:26:31.264Z,101520.70
2022-08-10T07:29:00.966Z,101522.96
2022-08-10T07:31:56.879Z,101521.52
2022-08-10T07:34:29.060Z,101523.58
2022-08-10T07:37:38.559Z,101511.25
2022-08-10T07:40:21.405Z,101518.67
2022-08-10T07:43:18.247Z,101517.34
2022-08-10T07:45:48.773Z,101525.64
2022-08-10T07:48:27.932Z,101530.38
2022-08-10T07:53:51.660Z,101531.94
2022-08-10T07:56:48.887Z,101535.83
2022-08-10T07:59:48.009Z,101529.00
2022-08-10T08:02:29.572Z,101538.36
2022-08-10T08:05:09.163Z,101535.67
2022-08-10T08:07:39.415Z,101529.19
2022-08-10T08:10:12.535Z,101527.69
2022-08-10T08:12:43.248Z,101526.21
2022-08-10T08:16:16.786Z,101532.39
2022-08-10T08:18:13.288Z,101524.89
2022-08-10T08:20:44.661Z,101530.24
2022-08-10T08:24:05.777Z,101520.63
2022-08-10T08:26:08.805Z,101531.82
2022-08-10T08:28:39.867Z,101532.11
2022-08-10T08:31:10.029Z,101525.38
2022-08-10T08:33:41.587Z,101522.73
2022-08-10T08:36:16.299Z,101519.11
2022-08-10T08:38:47.663Z,101522.77
2022-08-10T08:41:51.151Z,101517.71
2022-08-10T08:44:50.624Z,101529.75
2022-08-10T08:48:04.538Z,101519.47
2022-08-10T08:51:08.648Z,101520.53
2022-08-10T08:54:00.896Z,101526.52
2022-08-10T08:57:06.492Z,101528.94
2022-08-10T09:00:35.092Z,101535.83
2022-08-10T09:04:20.115Z,101532.30
2022-08-10T09:07:59.356Z,101535.09
2022-08-10T09:10:57.253Z,101535.10
2022-08-10T09:13:42.700Z,101530.71
2022-08-10T09:16:30.194Z,101538.31
2022-08-10T09:19:36.192Z,101535.82
2022-08-10T09:22:23.067Z,101533.27
2022-08-10T09:24:59.640Z,101533.48
2022-08-10T09:28:07.287Z,101526.84
2022-08-10T09:31:22.845Z,101532.73
2022-08-10T09:36:25.754Z,101527.34
2022-08-10T09:37:42.568Z,101529.60
2022-08-10T09:41:00.230Z,101535.00
2022-08-10T09:43:38.977Z,101537.27
2022-08-10T09:47:06.047Z,101524.21
2022-08-10T09:50:04.946Z,101524.02
2022-08-10T09:53:15.872Z,101526.34
2022-08-10T09:56:59.825Z,101523.69
2022-08-10T10:00:23.917Z,101519.20
2022-08-10T10:03:24.090Z,101519.42
2022-08-10T10:06:10.366Z,101523.20
2022-08-10T10:09:10.380Z,101518.96
2022-08-10T10:12:09.852Z,101518.02
2022-08-10T10:15:25.213Z,101522.48
2022-08-10T10:18:09.018Z,101522.80
2022-08-10T10:21:06.469Z,101521.08
2022-08-10T10:24:30.211Z,101522.48
2022-08-10T10:27:43.591Z,101527.20
2022-08-10T10:30:27.130Z,101518.06
2022-08-10T10:33:55.444Z,101513.98
2022-08-10T10:36:42.830Z,101521.15
2022-08-10T10:39:23.767Z,101513.76
2022-08-10T10:42:45.361Z,101514.82
2022-08-10T10:45:53.262Z,101514.96
2022-08-10T10:48:40.083Z,101513.05
2022-08-10T10:51:19.631Z,101517.36
2022-08-10T10:54:32.791Z,101514.88
2022-08-10T10:57:10.608Z,101504.27
2022-08-10T11:00:09.652Z,101511.05
2022-08-10T11:02:55.369Z,101505.25
2022-08-10T11:06:02.930Z,101506.70
2022-08-10T11:08:41.132Z,101502.58
2022-08-10T11:11:59.633Z,101506.77
2022-08-10T11:14:33.521Z,101508.69
2022-08-10T11:17:44.427Z,101505.00
2022-08-10T11:21:07.106Z,101503.96
2022-08-10T11:24:47.171Z,101499.89
2022-08-10T11:27:06.460Z,101489.52
2022-08-10T11:29:59.586Z,101499.48
2022-08-10T11:32:43.216Z,101492.36
2022-08-10T11:35:37.127Z,101490.52
2022-08-10T11:38:57.573Z,101489.88
2022-08-10T11:42:10.292Z,101486.42
2022-08-10T11:45:00.292Z,101482.86
2022-08-10T11:47:58.108Z,101482.82
2022-08-10T11:50:38.501Z,101480.82
2022-08-10T11:53:27.654Z,101480.19
2022-08-10T11:56:13.471Z,101477.52
2022-08-10T12:02:00.592Z,101474.77
2022-08-10T12:04:33.094Z,101472.30
2022-08-10T12:10:06.566Z,101474.14
2022-08-10T12:10:40.984Z,101475.12
2022-08-10T12:13:20.132Z,101475.23
2022-08-10T12:16:17.626Z,101472.37
2022-08-10T12:19:02.879Z,101472.52
2022-08-10T12:22:06.366Z,101465.27
2022-08-10T12:24:53.055Z,101466.97
2022-08-10T12:27:42.217Z,101466.48
2022-08-10T12:30:21.251Z,101466.49
2022-08-10T12:33:19.062Z,101463.81
2022-08-10T12:36:27.258Z,101462.02
2022-08-10T12:38:58.848Z,101460.79
2022-08-10T12:42:00.284Z,101460.12
2022-08-10T12:44:47.346Z,101454.59
2022-08-10T12:47:47.376Z,101456.02
2022-08-10T12:51:30.854Z,101455.70
2022-08-10T12:54:13.897Z,101453.02
2022-08-10T13:00:17.536Z,101437.12
2022-08-10T13:02:49.700Z,101438.90
2022-08-10T13:05:18.990Z,101438.69
2022-08-10T13:08:35.393Z,101436.27
2022-08-10T13:12:36.638Z,101436.48
2022-08-10T13:14:24.171Z,101433.25
2022-08-10T13:17:01.088Z,101429.61
2022-08-10T13:20:12.970Z,101428.45
2022-08-10T13:22:46.326Z,101427.58
2022-08-10T13:25:32.125Z,101429.27
2022-08-10T13:28:37.235Z,101422.29
2022-08-10T13:31:17.074Z,101424.58
2022-08-10T13:34:40.217Z,101420.81
2022-08-10T13:37:18.464Z,101418.64
2022-08-10T13:39:59.806Z,101414.88
2022-08-10T13:42:37.324Z,101407.61
2022-08-10T13:45:28.336Z,101410.16
2022-08-10T13:48:17.163Z,101410.16
2022-08-10T13:50:57.134Z,101414.29
2022-08-10T13:53:34.628Z,101414.83
2022-08-10T13:56:06.239Z,101415.24
2022-08-10T13:58:42.691Z,101415.91
2022-08-10T14:01:21.558Z,101417.48
2022-08-10T14:04:14.409Z,101415.37
2022-08-10T14:06:48.980Z,101410.16
2022-08-10T14:09:28.104Z,101412.85
2022-08-10T14:12:01.665Z,101408.45
2022-08-10T14:14:32.504Z,101406.35
2022-08-10T14:17:03.447Z,101404.64
2022-08-10T14:19:43.309Z,101403.38
2022-08-10T14:22:19.740Z,101402.86
2022-08-10T14:25:13.426Z,101398.87
2022-08-10T14:28:03.120Z,101396.55
2022-08-10T14:30:35.182Z,101394.83
2022-08-10T14:33:13.839Z,101392.30
2022-08-10T14:36:18.725Z,101395.48
2022-08-10T14:38:38.120Z,101397.83
2022-08-10T14:42:01.406Z,101399.73
2022-08-10T14:44:14.006Z,101394.75
2022-08-10T14:46:51.350Z,101394.48
2022-08-10T14:49:26.667Z,101389.98
2022-08-10T14:52:04.223Z,101387.48
2022-08-10T14:54:37.318Z,101385.72
2022-08-10T14:57:20.845Z,101382.84
2022-08-10T15:00:22.930Z,101382.73
2022-08-10T15:02:58.189Z,101385.73
2022-08-10T15:05:39.711Z,101385.33
2022-08-10T15:12:15.209Z,101386.63
2022-08-10T15:14:44.802Z,101388.69
2022-08-10T15:17:37.583Z,101381.63
2022-08-10T15:20:55.389Z,101380.49
2022-08-10T15:24:15.375Z,101376.67
2022-08-10T15:27:54.535Z,101372.12
2022-08-10T15:31:06.471Z,101369.55
2022-08-10T15:34:06.462Z,101366.41
2022-08-10T15:37:39.966Z,101361.79
2022-08-10T15:40:31.249Z,101359.80
2022-08-10T15:43:44.646Z,101360.52
2022-08-10T15:47:05.976Z,101354.17
2022-08-10T15:50:05.814Z,101351.70
2022-08-10T15:53:02.607Z,101350.20
2022-08-10T15:55:53.236Z,101350.86
2022-08-10T15:59:12.286Z,101349.23
2022-08-10T16:02:16.145Z,101344.63
2022-08-10T16:05:40.774Z,101345.48
2022-08-10T16:08:56.702Z,101341.48
2022-08-10T16:11:38.714Z,101335.20
2022-08-10T16:14:19.013Z,101338.11
2022-08-10T16:16:56.589Z,101336.48
2022-08-10T16:19:27.996Z,101337.38
2022-08-10T16:22:35.278Z,101336.50
2022-08-10T16:25:02.337Z,101330.97
2022-08-10T16:27:33.304Z,101333.55
2022-08-10T16:30:07.359Z,101337.81
2022-08-10T16:32:39.554Z,101344.19
2022-08-10T16:35:16.938Z,101342.34
2022-08-10T16:37:57.732Z,101341.13
2022-08-10T16:40:31.629Z,101336.80
2022-08-10T16:43:06.806Z,101338.02
2022-08-10T16:45:50.848Z,101338.52
2022-08-10T16:48:33.308Z,101345.84
2022-08-10T16:51:21.925Z,101343.30
2022-08-10T16:53:52.494Z,101347.30
2022-08-10T16:56:48.585Z,101345.60
2022-08-10T16:59:39.581Z,101344.40
2022-08-10T17:02:24.754Z,101347.69
2022-08-10T17:04:55.409Z,101346.41
2022-08-10T17:07:35.989Z,101351.23
2022-08-10T17:10:49.566Z,101348.34
2022-08-10T17:13:32.965Z,101347.98
2022-08-10T17:16:05.867Z,101344.90
2022-08-10T17:19:26.763Z,101339.03
2022-08-10T17:22:10.985Z,101341.10
2022-08-10T17:25:04.756Z,101341.03
2022-08-10T17:28:05.881Z,101342.45
2022-08-10T17:30:58.025Z,101345.61
2022-08-10T17:33:30.929Z,101349.39
2022-08-10T17:36:04.505Z,101349.74
2022-08-10T17:38:37.930Z,101348.90
2022-08-10T17:41:14.868Z,101346.77
2022-08-10T17:44:01.849Z,101343.42
2022-08-10T17:46:41.681Z,101345.41
2022-08-10T17:49:16.097Z,101344.39
2022-08-10T17:52:00.197Z,101345.61
2022-08-10T17:55:10.036Z,101347.70
2022-08-10T17:58:01.593Z,101348.80
2022-08-10T18:00:33.723Z,101348.30
2022-08-10T18:03:06.077Z,101353.52
2022-08-10T18:05:36.752Z,101355.23
2022-08-10T18:08:14.885Z,101356.23
2022-08-10T18:14:34.379Z,101349.24
2022-08-10T18:17:17.450Z,101350.73
2022-08-10T18:19:54.874Z,101347.18
2022-08-10T18:22:27.166Z,101343.64
2022-08-10T18:25:00.793Z,101343.59
2022-08-10T18:28:00.190Z,101341.53
2022-08-10T18:30:24.645Z,101343.10
2022-08-10T18:32:59.294Z,101342.14
2022-08-10T18:35:34.793Z,101341.56
2022-08-10T18:38:07.081Z,101344.17
2022-08-10T18:40:40.710Z,101342.96
2022-08-10T18:44:07.482Z,101345.11
2022-08-10T18:46:03.243Z,101351.29
2022-08-10T18:48:50.452Z,101342.59
2022-08-10T18:51:35.819Z,101343.68
2022-08-10T18:54:39.384Z,101348.73
2022-08-10T18:58:08.627Z,101350.27
2022-08-10T19:00:57.924Z,101355.42
2022-08-10T19:03:37.389Z,101355.46
2022-08-10T19:07:03.169Z,101356.51
2022-08-10T19:10:30.435Z,101362.23
2022-08-10T19:13:20.163Z,101358.73
2022-08-10T19:16:22.483Z,101356.98
2022-08-10T19:19:22.080Z,101350.92
2022-08-10T19:21:58.687Z,101347.80
2022-08-10T19:25:10.331Z,101347.77
2022-08-10T19:27:52.878Z,101350.16
2022-08-10T19:30:40.703Z,101347.05
2022-08-10T19:33:52.850Z,101346.98
2022-08-10T19:37:25.086Z,101346.69
2022-08-10T19:40:16.631Z,101344.48
2022-08-10T19:43:00.636Z,101342.58
2022-08-10T19:46:12.877Z,101342.84
2022-08-10T19:48:52.980Z,101335.96
2022-08-10T19:52:11.014Z,101336.96
2022-08-10T19:55:18.337Z,101335.11
2022-08-10T19:58:23.123Z,101335.08
2022-08-10T20:01:05.909Z,101336.91
2022-08-10T20:03:46.311Z,101337.91
2022-08-10T20:06:26.980Z,101334.17
2022-08-10T20:09:24.332Z,101331.36
2022-08-10T20:12:14.529Z,101330.01
2022-08-10T20:15:20.361Z,101326.14
2022-08-10T20:17:56.120Z,101323.35
2022-08-10T20:20:45.025Z,101325.17
2022-08-10T20:23:33.262Z,101320.39
2022-08-10T20:26:17.967Z,101326.17
2022-08-10T20:29:16.522Z,101323.70
2022-08-10T20:32:18.500Z,101320.23
2022-08-10T20:35:01.829Z,101320.48
2022-08-10T20:38:01.966Z,101321.13
2022-08-10T20:40:49.737Z,101319.16
2022-08-10T20:43:47.784Z,101316.06
2022-08-10T20:46:35.883Z,101314.52
2022-08-10T20:49:38.862Z,101311.52
2022-08-10T20:52:07.624Z,101308.75
2022-08-10T20:54:54.562Z,101306.92
2022-08-10T20:57:55.134Z,101307.52
2022-08-10T21:01:02.238Z,101308.02
2022-08-10T21:04:06.508Z,101312.29
2022-08-10T21:11:14.009Z,101311.95
2022-08-10T21:14:30.908Z,101314.04
2022-08-10T21:18:09.902Z,101320.33
2022-08-10T21:21:09.416Z,101317.05
2022-08-10T21:23:50.780Z,101315.86
2022-08-10T21:26:55.265Z,101317.55
2022-08-10T21:38:19.570Z,101316.20
2022-08-10T21:41:57.157Z,101309.14
2022-08-10T21:45:16.806Z,101310.89
2022-08-10T21:48:37.658Z,101308.95
2022-08-10T21:52:05.554Z,101300.16
2022-08-10T21:55:03.115Z,101292.77
2022-08-10T21:58:20.437Z,101290.52
2022-08-10T22:01:42.086Z,101286.62
2022-08-10T22:04:32.437Z,101282.34
2022-08-10T22:07:22.220Z,101279.05
2022-08-10T22:10:16.767Z,101274.64
2022-08-10T22:13:08.606Z,101268.77
2022-08-10T22:16:11.617Z,101272.03
2022-08-10T22:19:04.772Z,101271.42
2022-08-10T22:22:27.097Z,101273.41
2022-08-10T22:26:17.985Z,101273.07
2022-08-10T22:29:12.223Z,101272.26
2022-08-10T22:32:47.567Z,101273.25
2022-08-10T22:35:54.272Z,101272.30
2022-08-10T22:39:09.140Z,101272.44
2022-08-10T22:42:11.686Z,101270.98
2022-08-10T22:45:05.990Z,101270.92
2022-08-10T22:47:53.306Z,101273.95
2022-08-10T22:50:27.141Z,101279.66
2022-08-10T22:53:09.224Z,101278.79
2022-08-10T22:56:07.745Z,101281.58
2022-08-10T22:58:41.100Z,101286.95
2022-08-10T23:01:39.190Z,101281.11
2022-08-10T23:04:34.772Z,101286.33
2022-08-10T23:07:22.881Z,101285.23
2022-08-10T23:09:59.325Z,101286.95
2022-08-10T23:12:55.160Z,101283.61
2022-08-10T23:15:51.717Z,101281.89
2022-08-10T23:19:02.881Z,101278.19
2022-08-10T23:22:02.969Z,101269.18
2022-08-10T23:25:04.930Z,101270.38
2022-08-10T23:27:37.380Z,101271.02
2022-08-10T23:30:17.447Z,101274.17
2022-08-10T23:32:52.353Z,101273.86
2022-08-10T23:36:31.497Z,101276.64
2022-08-10T23:38:16.980Z,101274.83
2022-08-10T23:40:49.496Z,101275.64
2022-08-10T23:43:32.100Z,101273.16
2022-08-10T23:46:11.894Z,101272.21
2022-08-10T23:48:45.612Z,101268.27
2022-08-10T23:51:17.532Z,101264.06
2022-08-10T23:53:52.094Z,101265.84
2022-08-10T23:56:25.242Z,101265.55
2022-08-10T23:58:59.952Z,101265.15
